< Typhoon 195301 1953 Season Typhoon 195303 >
Typhoon 195302 (JUDY)
General InformationTrack Information on Google Maps || Disaster Info.ResourceGoogle EarthGE AnimationAtom FeedGeoJSON
Detalied Best Track (Time Zone = UTC)
Year Month Day Hour Lat. Long. Pressure (hPa) Wind (kt) Class Image Chart
1953 5 29 00 8.0 146.0 1006 0 2 -- Chart
1953 5 29 06 8.3 145.2 1000 0 9 -- Chart
1953 5 29 12 8.3 144.1 998 0 9 -- Chart
1953 5 29 18 8.4 143.0 998 0 9 -- Chart
1953 5 30 00 8.6 141.8 997 0 9 -- Chart
1953 5 30 06 8.9 140.2 995 0 9 -- Chart
1953 5 30 12 9.2 138.8 995 0 9 -- Chart
1953 5 30 18 9.5 137.4 995 0 9 -- Chart
1953 5 31 00 9.9 136.0 995 0 9 -- Chart
1953 5 31 06 10.3 134.8 990 0 9 -- Chart
1953 5 31 12 10.5 133.7 988 0 9 -- Chart
1953 5 31 18 10.8 132.6 986 0 9 -- Chart
1953 6 1 00 11.0 131.6 985 0 9 -- Chart
1953 6 1 06 11.5 130.5 980 0 9 -- Chart
1953 6 1 12 11.8 129.5 970 0 9 -- Chart
1953 6 1 18 12.3 128.6 955 0 9 -- Chart
1953 6 2 00 12.7 127.7 945 0 9 -- Chart
1953 6 2 06 13.3 126.7 940 0 9 -- Chart
1953 6 2 12 13.8 126.0 950 0 9 -- Chart
1953 6 2 18 14.3 125.5 950 0 9 -- Chart
1953 6 3 00 14.9 125.1 950 0 9 -- Chart
1953 6 3 06 15.5 124.5 950 0 9 -- Chart
1953 6 3 12 16.2 123.7 950 0 9 -- Chart
1953 6 3 18 16.7 122.9 950 0 9 -- Chart
1953 6 4 00 17.2 122.2 990 0 9 -- Chart
1953 6 4 06 18.0 121.2 990 0 9 -- Chart
1953 6 4 12 18.7 120.6 990 0 9 -- Chart
1953 6 4 18 19.7 120.3 990 0 9 -- Chart
1953 6 5 00 20.7 120.5 992 0 9 -- Chart
1953 6 5 06 21.6 121.0 993 0 9 -- Chart
1953 6 5 12 22.4 121.7 993 0 9 -- Chart
1953 6 5 18 23.2 122.3 993 0 9 -- Chart
1953 6 6 00 24.1 123.0 990 0 9 -- Chart
1953 6 6 06 25.2 123.6 985 0 9 -- Chart
1953 6 6 12 27.3 126.3 985 0 9 -- Chart
1953 6 6 18 29.8 127.5 984 0 9 -- Chart
1953 6 7 00 32.3 130.5 988 0 9 -- Chart
1953 6 7 06 34.5 133.8 993 0 9 -- Chart
1953 6 7 12 36.1 136.9 998 0 6 -- Chart
Japan Meteorological Agency Best Track Data | Correction Date : 1989-06-01
< Typhoon 195301 1953 Season Typhoon 195303 >

Help